Station Historical Data
Daily Summary for January 28, 2018 Units:  Both    English   Metric
« Previous Day
Next Day »
Daily Weekly Monthly Yearly Custom
  High: Low: Average:
Temperature: 42.9 °F /  6.1 °C 29.3 °F /  -1.5 °C 34.8 °F /  1.6 °C
Dew Point: 33.7 °F /  0.9 °C 23.4 °F /  -4.8 °C 28.8 °F /  -1.8 °C
Humidity: 92% 60% 79%
Wind Speed: 8.0mph /  12.9km/h - 3.1mph /  5km/h
Wind Gust: 17.0mph /  27.4km/h - -
Wind- - SSW
Pressure: 30.36 in /  1028 hPa 30.19 in /  1022.2 hPa -
Precipitation: 0.00 in /  0 mm    
Historical Graphs
 
 
Tabular Data for January 28, 2018
Time Temperature Dew Point Pressure Wind Wind Speed Wind Gust Humidity Rainfall Rate (Hourly)
00:04 36.2 °F /  2.3 °C 33.5 °F /  0.8 °C 30.19in /  1022.2hPa SW 6.0mph /  9.7km/h 12.0mph /  19.3km/h 90% 0.00in /  0mm
00:09 36.1 °F /  2.3 °C 33.7 °F /  0.9 °C 30.19in /  1022.2hPa SW 5.0mph /  8km/h 12.0mph /  19.3km/h 91% 0.00in /  0mm
00:14 36.0 °F /  2.2 °C 33.6 °F /  0.9 °C 30.19in /  1022.2hPa SW 5.0mph /  8km/h 10.0mph /  16.1km/h 91% 0.00in /  0mm
00:19 35.9 °F /  2.2 °C 33.5 °F /  0.8 °C 30.19in /  1022.2hPa SW 5.0mph /  8km/h 10.0mph /  16.1km/h 91% 0.00in /  0mm
00:24 35.7 °F /  2.1 °C 33.3 °F /  0.7 °C 30.19in /  1022.2hPa SW 5.0mph /  8km/h 11.0mph /  17.7km/h 91% 0.00in /  0mm
00:29 35.5 °F /  1.9 °C 33.1 °F /  0.6 °C 30.19in /  1022.2hPa SW 4.0mph /  6.4km/h 11.0mph /  17.7km/h 91% 0.00in /  0mm
00:34 35.3 °F /  1.8 °C 32.9 °F /  0.5 °C 30.19in /  1022.2hPa SW 6.0mph /  9.7km/h 11.0mph /  17.7km/h 91% 0.00in /  0mm
00:39 35.1 °F /  1.7 °C 32.7 °F /  0.4 °C 30.19in /  1022.2hPa SW 6.0mph /  9.7km/h 11.0mph /  17.7km/h 91% 0.00in /  0mm
00:44 34.9 °F /  1.6 °C 32.5 °F /  0.3 °C 30.19in /  1022.2hPa SW 6.0mph /  9.7km/h 12.0mph /  19.3km/h 91% 0.00in /  0mm
00:49 34.8 °F /  1.6 °C 32.4 °F /  0.2 °C 30.19in /  1022.2hPa WSW 4.0mph /  6.4km/h 9.0mph /  14.5km/h 91% 0.00in /  0mm
00:54 34.6 °F /  1.4 °C 32.2 °F /  0.1 °C 30.20in /  1022.6hPa SW 8.0mph /  12.9km/h 12.0mph /  19.3km/h 91% 0.00in /  0mm
00:59 34.6 °F /  1.4 °C 32.2 °F /  0.1 °C 30.20in /  1022.6hPa West 6.0mph /  9.7km/h 11.0mph /  17.7km/h 91% 0.00in /  0mm
01:04 34.6 °F /  1.4 °C 32.2 °F /  0.1 °C 30.20in /  1022.6hPa WSW 5.0mph /  8km/h 9.0mph /  14.5km/h 91% 0.00in /  0mm
01:09 34.6 °F /  1.4 °C 32.2 °F /  0.1 °C 30.20in /  1022.6hPa WSW 6.0mph /  9.7km/h 12.0mph /  19.3km/h 91% 0.00in /  0mm
01:14 34.5 °F /  1.4 °C 32.1 °F /  0.1 °C 30.20in /  1022.6hPa SW 6.0mph /  9.7km/h 17.0mph /  27.4km/h 91% 0.00in /  0mm
01:19 34.5 °F /  1.4 °C 32.1 °F /  0.1 °C 30.20in /  1022.6hPa SW 7.0mph /  11.3km/h 17.0mph /  27.4km/h 91% 0.00in /  0mm
01:24 34.5 °F /  1.4 °C 32.1 °F /  0.1 °C 30.20in /  1022.6hPa SW 7.0mph /  11.3km/h 10.0mph /  16.1km/h 91% 0.00in /  0mm
01:29 34.5 °F /  1.4 °C 32.1 °F /  0.1 °C 30.20in /  1022.6hPa SW 6.0mph /  9.7km/h 12.0mph /  19.3km/h 91% 0.00in /  0mm
01:34 34.4 °F /  1.3 °C 32.0 °F /  0 °C 30.20in /  1022.6hPa SW 6.0mph /  9.7km/h 11.0mph /  17.7km/h 91% 0.00in /  0mm
01:39 34.4 °F /  1.3 °C 32.3 °F /  0.2 °C 30.20in /  1022.6hPa West 3.0mph /  4.8km/h 12.0mph /  19.3km/h 92% 0.00in /  0mm
01:44 34.4 °F /  1.3 °C 32.3 °F /  0.2 °C 30.21in /  1022.9hPa SW 6.0mph /  9.7km/h 12.0mph /  19.3km/h 92% 0.00in /  0mm
01:49 34.3 °F /  1.3 °C 32.2 °F /  0.1 °C 30.20in /  1022.6hPa SW 6.0mph /  9.7km/h 11.0mph /  17.7km/h 92% 0.00in /  0mm
01:54 34.2 °F /  1.2 °C 32.1 °F /  0.1 °C 30.20in /  1022.6hPa South 2.0mph /  3.2km/h 8.0mph /  12.9km/h 92% 0.00in /  0mm
01:59 34.0 °F /  1.1 °C 31.9 °F /  -0.1 °C 30.21in /  1022.9hPa WSW 8.0mph /  12.9km/h 13.0mph /  20.9km/h 92% 0.00in /  0mm
02:04 33.8 °F /  1 °C 31.7 °F /  -0.2 °C 30.21in /  1022.9hPa SSW 3.0mph /  4.8km/h 9.0mph /  14.5km/h 92% 0.00in /  0mm
02:09 33.6 °F /  0.9 °C 31.5 °F /  -0.3 °C 30.21in /  1022.9hPa SW 8.0mph /  12.9km/h 11.0mph /  17.7km/h 92% 0.00in /  0mm
02:14 33.5 °F /  0.8 °C 31.4 °F /  -0.3 °C 30.21in /  1022.9hPa WSW 7.0mph /  11.3km/h 11.0mph /  17.7km/h 92% 0.00in /  0mm
02:19 33.4 °F /  0.8 °C 31.3 °F /  -0.4 °C 30.22in /  1023.2hPa SW 5.0mph /  8km/h 11.0mph /  17.7km/h 92% 0.00in /  0mm
02:24 33.3 °F /  0.7 °C 31.2 °F /  -0.4 °C 30.22in /  1023.2hPa SW 5.0mph /  8km/h 12.0mph /  19.3km/h 92% 0.00in /  0mm
02:29 33.3 °F /  0.7 °C 31.2 °F /  -0.4 °C 30.22in /  1023.2hPa SW 5.0mph /  8km/h 12.0mph /  19.3km/h 92% 0.00in /  0mm
02:34 33.0 °F /  0.6 °C 30.9 °F /  -0.6 °C 30.22in /  1023.2hPa SW 4.0mph /  6.4km/h 8.0mph /  12.9km/h 92% 0.00in /  0mm
02:39 32.9 °F /  0.5 °C 30.8 °F /  -0.7 °C 30.23in /  1023.6hPa WSW 4.0mph /  6.4km/h 10.0mph /  16.1km/h 92% 0.00in /  0mm
02:44 32.8 °F /  0.4 °C 30.7 °F /  -0.7 °C 30.23in /  1023.6hPa WSW 4.0mph /  6.4km/h 7.0mph /  11.3km/h 92% 0.00in /  0mm
02:49 32.8 °F /  0.4 °C 30.7 °F /  -0.7 °C 30.23in /  1023.6hPa WSW 6.0mph /  9.7km/h 8.0mph /  12.9km/h 92% 0.00in /  0mm
02:54 32.9 °F /  0.5 °C 30.8 °F /  -0.7 °C 30.23in /  1023.6hPa WSW 5.0mph /  8km/h 9.0mph /  14.5km/h 92% 0.00in /  0mm
02:59 32.7 °F /  0.4 °C 30.6 °F /  -0.8 °C 30.23in /  1023.6hPa WSW 4.0mph /  6.4km/h 11.0mph /  17.7km/h 92% 0.00in /  0mm
03:04 32.5 °F /  0.3 °C 30.4 °F /  -0.9 °C 30.23in /  1023.6hPa West 2.0mph /  3.2km/h 7.0mph /  11.3km/h 92% 0.00in /  0mm
03:09 32.2 °F /  0.1 °C 30.1 °F /  -1.1 °C 30.23in /  1023.6hPa WSW 3.0mph /  4.8km/h 7.0mph /  11.3km/h 92% 0.00in /  0mm
03:14 31.7 °F /  -0.2 °C 29.6 °F /  -1.3 °C 30.23in /  1023.6hPa SW 4.0mph /  6.4km/h 7.0mph /  11.3km/h 92% 0.00in /  0mm
03:19 31.5 °F /  -0.3 °C 29.4 °F /  -1.4 °C 30.24in /  1023.9hPa WSW 3.0mph /  4.8km/h 9.0mph /  14.5km/h 92% 0.00in /  0mm
03:24 31.3 °F /  -0.4 °C 29.2 °F /  -1.6 °C 30.23in /  1023.6hPa SW 5.0mph /  8km/h 9.0mph /  14.5km/h 92% 0.00in /  0mm
03:29 31.4 °F /  -0.3 °C 29.3 °F /  -1.5 °C 30.23in /  1023.6hPa WSW 4.0mph /  6.4km/h 9.0mph /  14.5km/h 92% 0.00in /  0mm
03:34 31.4 °F /  -0.3 °C 29.3 °F /  -1.5 °C 30.23in /  1023.6hPa SW 3.0mph /  4.8km/h 8.0mph /  12.9km/h 92% 0.00in /  0mm
03:39 31.5 °F /  -0.3 °C 29.4 °F /  -1.4 °C 30.24in /  1023.9hPa SW 4.0mph /  6.4km/h 8.0mph /  12.9km/h 92% 0.00in /  0mm
03:45 31.6 °F /  -0.2 °C 29.5 °F /  -1.4 °C 30.24in /  1023.9hPa SW 3.0mph /  4.8km/h 8.0mph /  12.9km/h 92% 0.00in /  0mm
03:54 31.7 °F /  -0.2 °C 29.6 °F /  -1.3 °C 30.24in /  1023.9hPa SW 6.0mph /  9.7km/h 7.0mph /  11.3km/h 92% 0.00in /  0mm
03:59 31.7 °F /  -0.2 °C 29.6 °F /  -1.3 °C 30.24in /  1023.9hPa South 2.0mph /  3.2km/h 7.0mph /  11.3km/h 92% 0.00in /  0mm
04:04 31.7 °F /  -0.2 °C 29.6 °F /  -1.3 °C 30.24in /  1023.9hPa WSW 3.0mph /  4.8km/h 7.0mph /  11.3km/h 92% 0.00in /  0mm
04:09 31.7 °F /  -0.2 °C 29.6 °F /  -1.3 °C 30.24in /  1023.9hPa WSW 2.0mph /  3.2km/h 7.0mph /  11.3km/h 92% 0.00in /  0mm
04:14 31.7 °F /  -0.2 °C 29.6 °F /  -1.3 °C 30.24in /  1023.9hPa WSW 2.0mph /  3.2km/h 5.0mph /  8km/h 92% 0.00in /  0mm
04:19 31.7 °F /  -0.2 °C 29.6 °F /  -1.3 °C 30.24in /  1023.9hPa WSW 4.0mph /  6.4km/h 5.0mph /  8km/h 92% 0.00in /  0mm
04:24 31.7 °F /  -0.2 °C 29.6 °F /  -1.3 °C 30.24in /  1023.9hPa WSW 3.0mph /  4.8km/h 6.0mph /  9.7km/h 92% 0.00in /  0mm
04:29 31.8 °F /  -0.1 °C 29.7 °F /  -1.3 °C 30.24in /  1023.9hPa WSW 3.0mph /  4.8km/h 7.0mph /  11.3km/h 92% 0.00in /  0mm
04:34 31.8 °F /  -0.1 °C 29.7 °F /  -1.3 °C 30.24in /  1023.9hPa WSW 4.0mph /  6.4km/h 7.0mph /  11.3km/h 92% 0.00in /  0mm
04:39 31.8 °F /  -0.1 °C 29.7 °F /  -1.3 °C 30.24in /  1023.9hPa SW 3.0mph /  4.8km/h 6.0mph /  9.7km/h 92% 0.00in /  0mm
04:44 31.8 °F /  -0.1 °C 29.7 °F /  -1.3 °C 30.24in /  1023.9hPa SW 3.0mph /  4.8km/h 6.0mph /  9.7km/h 92% 0.00in /  0mm
04:49 31.9 °F /  -0.1 °C 29.8 °F /  -1.2 °C 30.24in /  1023.9hPa WSW 3.0mph /  4.8km/h 6.0mph /  9.7km/h 92% 0.00in /  0mm
04:54 31.9 °F /  -0.1 °C 29.8 °F /  -1.2 °C 30.24in /  1023.9hPa WSW 2.0mph /  3.2km/h 5.0mph /  8km/h 92% 0.00in /  0mm
04:59 31.9 °F /  -0.1 °C 29.8 °F /  -1.2 °C 30.24in /  1023.9hPa Calm   4.0mph /  6.4km/h 92% 0.00in /  0mm
05:04 31.7 °F /  -0.2 °C 29.6 °F /  -1.3 °C 30.25in /  1024.3hPa WSW 2.0mph /  3.2km/h 5.0mph /  8km/h 92% 0.00in /  0mm
05:09 31.6 °F /  -0.2 °C 29.5 °F /  -1.4 °C 30.25in /  1024.3hPa WSW 2.0mph /  3.2km/h 3.0mph /  4.8km/h 92% 0.00in /  0mm
05:14 31.6 °F /  -0.2 °C 29.5 °F /  -1.4 °C 30.25in /  1024.3hPa WSW 3.0mph /  4.8km/h 4.0mph /  6.4km/h 92% 0.00in /  0mm
05:19 31.6 °F /  -0.2 °C 29.5 °F /  -1.4 °C 30.25in /  1024.3hPa WSW 1.0mph /  1.6km/h 4.0mph /  6.4km/h 92% 0.00in /  0mm
05:24 31.6 °F /  -0.2 °C 29.5 °F /  -1.4 °C 30.25in /  1024.3hPa WSW 1.0mph /  1.6km/h 5.0mph /  8km/h 92% 0.00in /  0mm
05:29 31.8 °F /  -0.1 °C 29.7 °F /  -1.3 °C 30.25in /  1024.3hPa WSW 2.0mph /  3.2km/h 8.0mph /  12.9km/h 92% 0.00in /  0mm
05:34 31.8 °F /  -0.1 °C 29.7 °F /  -1.3 °C 30.25in /  1024.3hPa WSW 3.0mph /  4.8km/h 8.0mph /  12.9km/h 92% 0.00in /  0mm
05:39 31.7 °F /  -0.2 °C 29.6 °F /  -1.3 °C 30.25in /  1024.3hPa WSW 2.0mph /  3.2km/h 5.0mph /  8km/h 92% 0.00in /  0mm
05:44 31.7 °F /  -0.2 °C 29.6 °F /  -1.3 °C 30.25in /  1024.3hPa WSW 2.0mph /  3.2km/h 5.0mph /  8km/h 92% 0.00in /  0mm
05:49 31.6 °F /  -0.2 °C 29.5 °F /  -1.4 °C 30.25in /  1024.3hPa SW 1.0mph /  1.6km/h 4.0mph /  6.4km/h 92% 0.00in /  0mm
05:54 31.4 °F /  -0.3 °C 29.3 °F /  -1.5 °C 30.25in /  1024.3hPa SW 2.0mph /  3.2km/h 4.0mph /  6.4km/h 92% 0.00in /  0mm
05:59 31.3 °F /  -0.4 °C 29.2 °F /  -1.6 °C 30.25in /  1024.3hPa SW 1.0mph /  1.6km/h 3.0mph /  4.8km/h 92% 0.00in /  0mm
06:04 31.1 °F /  -0.5 °C 29.0 °F /  -1.7 °C 30.25in /  1024.3hPa Calm   3.0mph /  4.8km/h 92% 0.00in /  0mm
06:09 30.6 °F /  -0.8 °C 28.3 °F /  -2.1 °C 30.25in /  1024.3hPa Calm     91% 0.00in /  0mm
06:14 30.4 °F /  -0.9 °C 28.4 °F /  -2 °C 30.25in /  1024.3hPa Calm   4.0mph /  6.4km/h 92% 0.00in /  0mm
06:19 30.6 °F /  -0.8 °C 28.6 °F /  -1.9 °C 30.26in /  1024.6hPa SW 2.0mph /  3.2km/h 3.0mph /  4.8km/h 92% 0.00in /  0mm
06:24 30.7 °F /  -0.7 °C 28.7 °F /  -1.8 °C 30.26in /  1024.6hPa Calm   4.0mph /  6.4km/h 92% 0.00in /  0mm
06:29 30.4 °F /  -0.9 °C 28.1 °F /  -2.2 °C 30.26in /  1024.6hPa SW 1.0mph /  1.6km/h 4.0mph /  6.4km/h 91% 0.00in /  0mm
06:34 30.2 °F /  -1 °C 27.9 °F /  -2.3 °C 30.26in /  1024.6hPa Calm     91% 0.00in /  0mm
06:39 30.1 °F /  -1.1 °C 27.8 °F /  -2.3 °C 30.26in /  1024.6hPa Calm     91% 0.00in /  0mm
06:44 30.2 °F /  -1 °C 27.9 °F /  -2.3 °C 30.26in /  1024.6hPa Calm     91% 0.00in /  0mm
06:49 29.9 °F /  -1.2 °C 27.6 °F /  -2.4 °C 30.27in /  1024.9hPa Calm     91% 0.00in /  0mm
06:54 29.7 °F /  -1.3 °C 27.4 °F /  -2.6 °C 30.27in /  1024.9hPa Calm     91% 0.00in /  0mm
06:59 29.6 °F /  -1.3 °C 27.3 °F /  -2.6 °C 30.28in /  1025.3hPa Calm     91% 0.00in /  0mm
07:04 29.6 °F /  -1.3 °C 27.3 °F /  -2.6 °C 30.28in /  1025.3hPa Calm   3.0mph /  4.8km/h 91% 0.00in /  0mm
07:09 29.6 °F /  -1.3 °C 27.3 °F /  -2.6 °C 30.28in /  1025.3hPa Calm   2.0mph /  3.2km/h 91% 0.00in /  0mm
07:14 29.8 °F /  -1.2 °C 27.5 °F /  -2.5 °C 30.28in /  1025.3hPa Calm     91% 0.00in /  0mm
07:19 30.0 °F /  -1.1 °C 27.4 °F /  -2.6 °C 30.28in /  1025.3hPa SW 3.0mph /  4.8km/h 5.0mph /  8km/h 90% 0.00in /  0mm
07:24 30.4 °F /  -0.9 °C 27.8 °F /  -2.3 °C 30.28in /  1025.3hPa Calm   3.0mph /  4.8km/h 90% 0.00in /  0mm
07:29 30.5 °F /  -0.8 °C 27.9 °F /  -2.3 °C 30.28in /  1025.3hPa SW 1.0mph /  1.6km/h 3.0mph /  4.8km/h 90% 0.00in /  0mm
07:34 30.6 °F /  -0.8 °C 27.7 °F /  -2.4 °C 30.28in /  1025.3hPa SW 1.0mph /  1.6km/h 3.0mph /  4.8km/h 89% 0.00in /  0mm
07:39 30.5 °F /  -0.8 °C 27.6 °F /  -2.4 °C 30.28in /  1025.3hPa SW 1.0mph /  1.6km/h 3.0mph /  4.8km/h 89% 0.00in /  0mm
07:44 30.3 °F /  -0.9 °C 27.2 °F /  -2.7 °C 30.28in /  1025.3hPa SW 1.0mph /  1.6km/h 3.0mph /  4.8km/h 88% 0.00in /  0mm
07:49 30.2 °F /  -1 °C 27.1 °F /  -2.7 °C 30.29in /  1025.6hPa SW 1.0mph /  1.6km/h 4.0mph /  6.4km/h 88% 0.00in /  0mm
07:54 30.3 °F /  -0.9 °C 27.2 °F /  -2.7 °C 30.28in /  1025.3hPa SW 1.0mph /  1.6km/h 4.0mph /  6.4km/h 88% 0.00in /  0mm
07:59 30.4 °F /  -0.9 °C 27.0 °F /  -2.8 °C 30.29in /  1025.6hPa SW 1.0mph /  1.6km/h 3.0mph /  4.8km/h 87% 0.00in /  0mm
08:04 30.4 °F /  -0.9 °C 27.0 °F /  -2.8 °C 30.29in /  1025.6hPa SW 1.0mph /  1.6km/h 3.0mph /  4.8km/h 87% 0.00in /  0mm
08:09 30.5 °F /  -0.8 °C 26.8 °F /  -2.9 °C 30.29in /  1025.6hPa Calm   3.0mph /  4.8km/h 86% 0.00in /  0mm
08:14 30.5 °F /  -0.8 °C 26.8 °F /  -2.9 °C 30.29in /  1025.6hPa SW 1.0mph /  1.6km/h 3.0mph /  4.8km/h 86% 0.00in /  0mm
08:19 30.7 °F /  -0.7 °C 27.0 °F /  -2.8 °C 30.29in /  1025.6hPa SW 2.0mph /  3.2km/h 4.0mph /  6.4km/h 86% 0.00in /  0mm
08:24 31.0 °F /  -0.6 °C 27.0 °F /  -2.8 °C 30.29in /  1025.6hPa SW 2.0mph /  3.2km/h 4.0mph /  6.4km/h 85% 0.00in /  0mm
08:29 31.6 °F /  -0.2 °C 27.6 °F /  -2.4 °C 30.29in /  1025.6hPa SW 3.0mph /  4.8km/h 6.0mph /  9.7km/h 85% 0.00in /  0mm
08:34 32.3 °F /  0.2 °C 28.0 °F /  -2.2 °C 30.30in /  1026hPa SW 5.0mph /  8km/h 7.0mph /  11.3km/h 84% 0.00in /  0mm
08:39 33.0 °F /  0.6 °C 28.1 °F /  -2.2 °C 30.30in /  1026hPa WSW 3.0mph /  4.8km/h 7.0mph /  11.3km/h 82% 0.00in /  0mm
08:44 33.4 °F /  0.8 °C 28.2 °F /  -2.1 °C 30.30in /  1026hPa WSW 3.0mph /  4.8km/h 6.0mph /  9.7km/h 81% 0.00in /  0mm
08:49 33.9 °F /  1.1 °C 28.4 °F /  -2 °C 30.30in /  1026hPa WSW 3.0mph /  4.8km/h 6.0mph /  9.7km/h 80% 0.00in /  0mm
08:54 34.4 °F /  1.3 °C 28.2 °F /  -2.1 °C 30.30in /  1026hPa SW 3.0mph /  4.8km/h 8.0mph /  12.9km/h 78% 0.00in /  0mm
08:59 35.0 °F /  1.7 °C 28.5 °F /  -1.9 °C 30.30in /  1026hPa WSW 4.0mph /  6.4km/h 8.0mph /  12.9km/h 77% 0.00in /  0mm
09:04 35.4 °F /  1.9 °C 28.6 °F /  -1.9 °C 30.30in /  1026hPa SSW 4.0mph /  6.4km/h 9.0mph /  14.5km/h 76% 0.00in /  0mm
09:09 35.8 °F /  2.1 °C 28.6 °F /  -1.9 °C 30.30in /  1026hPa WSW 4.0mph /  6.4km/h 9.0mph /  14.5km/h 75% 0.00in /  0mm
09:14 36.2 °F /  2.3 °C 28.7 °F /  -1.8 °C 30.30in /  1026hPa SW 3.0mph /  4.8km/h 7.0mph /  11.3km/h 74% 0.00in /  0mm
09:19 36.6 °F /  2.6 °C 28.8 °F /  -1.8 °C 30.30in /  1026hPa SW 4.0mph /  6.4km/h 7.0mph /  11.3km/h 73% 0.00in /  0mm
09:24 36.9 °F /  2.7 °C 28.7 °F /  -1.8 °C 30.30in /  1026hPa SW 5.0mph /  8km/h 8.0mph /  12.9km/h 72% 0.00in /  0mm
09:29 37.0 °F /  2.8 °C 28.5 °F /  -1.9 °C 30.30in /  1026hPa West 4.0mph /  6.4km/h 11.0mph /  17.7km/h 71% 0.00in /  0mm
09:34 37.2 °F /  2.9 °C 28.3 °F /  -2.1 °C 30.30in /  1026hPa SW 5.0mph /  8km/h 9.0mph /  14.5km/h 70% 0.00in /  0mm
09:39 37.5 °F /  3.1 °C 28.6 °F /  -1.9 °C 30.30in /  1026hPa WSW 4.0mph /  6.4km/h 9.0mph /  14.5km/h 70% 0.00in /  0mm
09:44 38.1 °F /  3.4 °C 28.8 °F /  -1.8 °C 30.30in /  1026hPa WSW 5.0mph /  8km/h 9.0mph /  14.5km/h 69% 0.00in /  0mm
09:49 38.3 °F /  3.5 °C 28.3 °F /  -2.1 °C 30.30in /  1026hPa WSW 4.0mph /  6.4km/h 9.0mph /  14.5km/h 67% 0.00in /  0mm
09:54 38.0 °F /  3.3 °C 28.0 °F /  -2.2 °C 30.30in /  1026hPa WSW 5.0mph /  8km/h 10.0mph /  16.1km/h 67% 0.00in /  0mm
09:59 37.9 °F /  3.3 °C 27.9 °F /  -2.3 °C 30.30in /  1026hPa WSW 5.0mph /  8km/h 10.0mph /  16.1km/h 67% 0.00in /  0mm
10:04 37.9 °F /  3.3 °C 27.9 °F /  -2.3 °C 30.31in /  1026.3hPa WSW 4.0mph /  6.4km/h 11.0mph /  17.7km/h 67% 0.00in /  0mm
10:09 38.3 °F /  3.5 °C 28.7 °F /  -1.8 °C 30.31in /  1026.3hPa West 5.0mph /  8km/h 9.0mph /  14.5km/h 68% 0.00in /  0mm
10:14 38.5 °F /  3.6 °C 28.5 °F /  -1.9 °C 30.31in /  1026.3hPa WSW 2.0mph /  3.2km/h 10.0mph /  16.1km/h 67% 0.00in /  0mm
10:19 39.0 °F /  3.9 °C 28.6 °F /  -1.9 °C 30.31in /  1026.3hPa WSW 5.0mph /  8km/h 10.0mph /  16.1km/h 66% 0.00in /  0mm
10:24 39.1 °F /  3.9 °C 28.7 °F /  -1.8 °C 30.31in /  1026.3hPa WSW 4.0mph /  6.4km/h 9.0mph /  14.5km/h 66% 0.00in /  0mm
10:29 39.1 °F /  3.9 °C 28.3 °F /  -2.1 °C 30.31in /  1026.3hPa WSW 5.0mph /  8km/h 9.0mph /  14.5km/h 65% 0.00in /  0mm
10:34 39.4 °F /  4.1 °C 28.6 °F /  -1.9 °C 30.31in /  1026.3hPa WSW 5.0mph /  8km/h 9.0mph /  14.5km/h 65% 0.00in /  0mm
10:39 39.8 °F /  4.3 °C 29.0 °F /  -1.7 °C 30.31in /  1026.3hPa WSW 4.0mph /  6.4km/h 10.0mph /  16.1km/h 65% 0.00in /  0mm
10:44 39.9 °F /  4.4 °C 28.7 °F /  -1.8 °C 30.31in /  1026.3hPa WSW 7.0mph /  11.3km/h 10.0mph /  16.1km/h 64% 0.00in /  0mm
10:49 39.8 °F /  4.3 °C 28.6 °F /  -1.9 °C 30.31in /  1026.3hPa WSW 6.0mph /  9.7km/h 11.0mph /  17.7km/h 64% 0.00in /  0mm
10:54 39.8 °F /  4.3 °C 28.2 °F /  -2.1 °C 30.31in /  1026.3hPa WSW 4.0mph /  6.4km/h 12.0mph /  19.3km/h 63% 0.00in /  0mm
10:59 39.7 °F /  4.3 °C 28.5 °F /  -1.9 °C 30.31in /  1026.3hPa WSW 7.0mph /  11.3km/h 11.0mph /  17.7km/h 64% 0.00in /  0mm
11:04 39.8 °F /  4.3 °C 28.2 °F /  -2.1 °C 30.31in /  1026.3hPa West 7.0mph /  11.3km/h 12.0mph /  19.3km/h 63% 0.00in /  0mm
11:09 40.1 °F /  4.5 °C 28.9 °F /  -1.7 °C 30.31in /  1026.3hPa West 5.0mph /  8km/h 11.0mph /  17.7km/h 64% 0.00in /  0mm
11:14 40.0 °F /  4.4 °C 28.4 °F /  -2 °C 30.31in /  1026.3hPa West 6.0mph /  9.7km/h 12.0mph /  19.3km/h 63% 0.00in /  0mm
11:19 40.3 °F /  4.6 °C 28.3 °F /  -2.1 °C 30.31in /  1026.3hPa WSW 6.0mph /  9.7km/h 14.0mph /  22.5km/h 62% 0.00in /  0mm
11:24 40.7 °F /  4.8 °C 29.1 °F /  -1.6 °C 30.31in /  1026.3hPa WSW 7.0mph /  11.3km/h 14.0mph /  22.5km/h 63% 0.00in /  0mm
11:29 41.1 °F /  5.1 °C 29.5 °F /  -1.4 °C 30.31in /  1026.3hPa WSW 5.0mph /  8km/h 13.0mph /  20.9km/h 63% 0.00in /  0mm
11:34 40.6 °F /  4.8 °C 28.2 °F /  -2.1 °C 30.31in /  1026.3hPa WSW 5.0mph /  8km/h 12.0mph /  19.3km/h 61% 0.00in /  0mm
11:39 40.7 °F /  4.8 °C 28.7 °F /  -1.8 °C 30.31in /  1026.3hPa SW 4.0mph /  6.4km/h 13.0mph /  20.9km/h 62% 0.00in /  0mm
11:44 40.6 °F /  4.8 °C 28.6 °F /  -1.9 °C 30.31in /  1026.3hPa West 7.0mph /  11.3km/h 11.0mph /  17.7km/h 62% 0.00in /  0mm
11:49 40.7 °F /  4.8 °C 28.7 °F /  -1.8 °C 30.31in /  1026.3hPa SW 3.0mph /  4.8km/h 11.0mph /  17.7km/h 62% 0.00in /  0mm
11:54 41.3 °F /  5.2 °C 28.9 °F /  -1.7 °C 30.31in /  1026.3hPa WSW 6.0mph /  9.7km/h 11.0mph /  17.7km/h 61% 0.00in /  0mm
11:59 41.0 °F /  5 °C 28.6 °F /  -1.9 °C 30.31in /  1026.3hPa West 8.0mph /  12.9km/h 10.0mph /  16.1km/h 61% 0.00in /  0mm
12:04 41.3 °F /  5.2 °C 28.9 °F /  -1.7 °C 30.30in /  1026hPa WSW 6.0mph /  9.7km/h 11.0mph /  17.7km/h 61% 0.00in /  0mm
12:09 41.4 °F /  5.2 °C 28.9 °F /  -1.7 °C 30.30in /  1026hPa SW 8.0mph /  12.9km/h 10.0mph /  16.1km/h 61% 0.00in /  0mm
12:14 41.2 °F /  5.1 °C 28.8 °F /  -1.8 °C 30.30in /  1026hPa SSE 7.0mph /  11.3km/h 11.0mph /  17.7km/h 61% 0.00in /  0mm
12:19 41.3 °F /  5.2 °C 29.3 °F /  -1.5 °C 30.30in /  1026hPa WSW 5.0mph /  8km/h 11.0mph /  17.7km/h 62% 0.00in /  0mm
12:24 41.1 °F /  5.1 °C 28.3 °F /  -2.1 °C 30.30in /  1026hPa WSW 4.0mph /  6.4km/h 11.0mph /  17.7km/h 60% 0.00in /  0mm
12:29 41.4 °F /  5.2 °C 29.3 °F /  -1.5 °C 30.30in /  1026hPa WSW 6.0mph /  9.7km/h 12.0mph /  19.3km/h 62% 0.00in /  0mm
12:34 41.5 °F /  5.3 °C 28.6 °F /  -1.9 °C 30.29in /  1025.6hPa WSW 6.0mph /  9.7km/h 12.0mph /  19.3km/h 60% 0.00in /  0mm
12:39 41.5 °F /  5.3 °C 29.4 °F /  -1.4 °C 30.29in /  1025.6hPa SW 6.0mph /  9.7km/h 12.0mph /  19.3km/h 62% 0.00in /  0mm
12:44 41.4 °F /  5.2 °C 28.9 °F /  -1.7 °C 30.29in /  1025.6hPa SW 5.0mph /  8km/h 9.0mph /  14.5km/h 61% 0.00in /  0mm
12:49 41.2 °F /  5.1 °C 29.5 °F /  -1.4 °C 30.29in /  1025.6hPa SW 7.0mph /  11.3km/h 9.0mph /  14.5km/h 63% 0.00in /  0mm
12:54 41.7 °F /  5.4 °C 29.6 °F /  -1.3 °C 30.29in /  1025.6hPa WSW 6.0mph /  9.7km/h 8.0mph /  12.9km/h 62% 0.00in /  0mm
12:59 42.0 °F /  5.6 °C 30.3 °F /  -0.9 °C 30.29in /  1025.6hPa SW 4.0mph /  6.4km/h 8.0mph /  12.9km/h 63% 0.00in /  0mm
13:04 42.0 °F /  5.6 °C 30.3 °F /  -0.9 °C 30.29in /  1025.6hPa WSW 5.0mph /  8km/h 8.0mph /  12.9km/h 63% 0.00in /  0mm
13:09 42.0 °F /  5.6 °C 29.9 °F /  -1.2 °C 30.29in /  1025.6hPa SW 5.0mph /  8km/h 10.0mph /  16.1km/h 62% 0.00in /  0mm
13:14 42.3 °F /  5.7 °C 30.2 °F /  -1 °C 30.29in /  1025.6hPa WSW 4.0mph /  6.4km/h 8.0mph /  12.9km/h 62% 0.00in /  0mm
13:19 42.4 °F /  5.8 °C 30.7 °F /  -0.7 °C 30.28in /  1025.3hPa SW 3.0mph /  4.8km/h 7.0mph /  11.3km/h 63% 0.00in /  0mm
13:24 42.3 °F /  5.7 °C 30.6 °F /  -0.8 °C 30.28in /  1025.3hPa SW 5.0mph /  8km/h 7.0mph /  11.3km/h 63% 0.00in /  0mm
13:29 41.9 °F /  5.5 °C 30.6 °F /  -0.8 °C 30.28in /  1025.3hPa SSW 7.0mph /  11.3km/h 7.0mph /  11.3km/h 64% 0.00in /  0mm
13:34 41.8 °F /  5.4 °C 30.9 °F /  -0.6 °C 30.28in /  1025.3hPa SW 4.0mph /  6.4km/h 8.0mph /  12.9km/h 65% 0.00in /  0mm
13:39 42.1 °F /  5.6 °C 30.8 °F /  -0.7 °C 30.28in /  1025.3hPa SW 4.0mph /  6.4km/h 8.0mph /  12.9km/h 64% 0.00in /  0mm
13:44 42.5 °F /  5.8 °C 30.8 °F /  -0.7 °C 30.28in /  1025.3hPa SW 3.0mph /  4.8km/h 7.0mph /  11.3km/h 63% 0.00in /  0mm
13:49 42.2 °F /  5.7 °C 30.9 °F /  -0.6 °C 30.28in /  1025.3hPa SW 3.0mph /  4.8km/h 7.0mph /  11.3km/h 64% 0.00in /  0mm
13:54 41.5 °F /  5.3 °C 30.6 °F /  -0.8 °C 30.28in /  1025.3hPa SW 2.0mph /  3.2km/h 7.0mph /  11.3km/h 65% 0.00in /  0mm
13:59 42.1 °F /  5.6 °C 30.8 °F /  -0.7 °C 30.28in /  1025.3hPa WSW 1.0mph /  1.6km/h 5.0mph /  8km/h 64% 0.00in /  0mm
14:04 42.6 °F /  5.9 °C 30.9 °F /  -0.6 °C 30.28in /  1025.3hPa SW 6.0mph /  9.7km/h 7.0mph /  11.3km/h 63% 0.00in /  0mm
14:09 42.9 °F /  6.1 °C 31.6 °F /  -0.2 °C 30.28in /  1025.3hPa SW 4.0mph /  6.4km/h 6.0mph /  9.7km/h 64% 0.00in /  0mm
14:14 42.8 °F /  6 °C 30.7 °F /  -0.7 °C 30.28in /  1025.3hPa SW 4.0mph /  6.4km/h 9.0mph /  14.5km/h 62% 0.00in /  0mm
14:19 42.9 °F /  6.1 °C 30.8 °F /  -0.7 °C 30.28in /  1025.3hPa SW 4.0mph /  6.4km/h 9.0mph /  14.5km/h 62% 0.00in /  0mm
14:24 42.8 °F /  6 °C 30.7 °F /  -0.7 °C 30.28in /  1025.3hPa SSE 4.0mph /  6.4km/h 8.0mph /  12.9km/h 62% 0.00in /  0mm
14:29 42.5 °F /  5.8 °C 30.4 °F /  -0.9 °C 30.28in /  1025.3hPa West 4.0mph /  6.4km/h 8.0mph /  12.9km/h 62% 0.00in /  0mm
14:34 42.5 °F /  5.8 °C 30.4 °F /  -0.9 °C 30.28in /  1025.3hPa WSW 1.0mph /  1.6km/h 10.0mph /  16.1km/h 62% 0.00in /  0mm
14:39 42.5 °F /  5.8 °C 30.4 °F /  -0.9 °C 30.28in /  1025.3hPa SW 6.0mph /  9.7km/h 9.0mph /  14.5km/h 62% 0.00in /  0mm
14:44 42.2 °F /  5.7 °C 30.5 °F /  -0.8 °C 30.28in /  1025.3hPa SW 5.0mph /  8km/h 9.0mph /  14.5km/h 63% 0.00in /  0mm
14:49 41.7 °F /  5.4 °C 30.8 °F /  -0.7 °C 30.28in /  1025.3hPa SW 5.0mph /  8km/h 9.0mph /  14.5km/h 65% 0.00in /  0mm
14:54 41.6 °F /  5.3 °C 30.7 °F /  -0.7 °C 30.28in /  1025.3hPa WSW 8.0mph /  12.9km/h 8.0mph /  12.9km/h 65% 0.00in /  0mm
14:59 41.1 °F /  5.1 °C 30.2 °F /  -1 °C 30.28in /  1025.3hPa SW 5.0mph /  8km/h 8.0mph /  12.9km/h 65% 0.00in /  0mm
15:04 41.4 °F /  5.2 °C 31.3 °F /  -0.4 °C 30.28in /  1025.3hPa SSW 3.0mph /  4.8km/h 8.0mph /  12.9km/h 67% 0.00in /  0mm
15:09 41.3 °F /  5.2 °C 30.8 °F /  -0.7 °C 30.28in /  1025.3hPa WSW 5.0mph /  8km/h 9.0mph /  14.5km/h 66% 0.00in /  0mm
15:14 40.5 °F /  4.7 °C 30.4 °F /  -0.9 °C 30.28in /  1025.3hPa SW 5.0mph /  8km/h 9.0mph /  14.5km/h 67% 0.00in /  0mm
15:20 40.5 °F /  4.7 °C 30.4 °F /  -0.9 °C 30.28in /  1025.3hPa SW 5.0mph /  8km/h 9.0mph /  14.5km/h 67% 0.00in /  0mm
15:25 39.8 °F /  4.3 °C 29.7 °F /  -1.3 °C 30.28in /  1025.3hPa SW 5.0mph /  8km/h 8.0mph /  12.9km/h 67% 0.00in /  0mm
15:34 39.0 °F /  3.9 °C 29.7 °F /  -1.3 °C 30.28in /  1025.3hPa SW 4.0mph /  6.4km/h 8.0mph /  12.9km/h 69% 0.00in /  0mm
15:39 39.6 °F /  4.2 °C 30.3 °F /  -0.9 °C 30.28in /  1025.3hPa WSW 3.0mph /  4.8km/h 7.0mph /  11.3km/h 69% 0.00in /  0mm
15:44 40.1 °F /  4.5 °C 30.4 °F /  -0.9 °C 30.28in /  1025.3hPa WSW 3.0mph /  4.8km/h 7.0mph /  11.3km/h 68% 0.00in /  0mm
15:49 39.4 °F /  4.1 °C 30.1 °F /  -1.1 °C 30.29in /  1025.6hPa SW 3.0mph /  4.8km/h 7.0mph /  11.3km/h 69% 0.00in /  0mm
15:54 39.0 °F /  3.9 °C 29.7 °F /  -1.3 °C 30.29in /  1025.6hPa SW 4.0mph /  6.4km/h 7.0mph /  11.3km/h 69% 0.00in /  0mm
16:00 38.5 °F /  3.6 °C 29.6 °F /  -1.3 °C 30.29in /  1025.6hPa WSW 6.0mph /  9.7km/h 7.0mph /  11.3km/h 70% 0.00in /  0mm
16:09 37.9 °F /  3.3 °C 29.7 °F /  -1.3 °C 30.29in /  1025.6hPa SW 4.0mph /  6.4km/h 8.0mph /  12.9km/h 72% 0.00in /  0mm
16:14 37.4 °F /  3 °C 29.2 °F /  -1.6 °C 30.29in /  1025.6hPa SW 4.0mph /  6.4km/h 8.0mph /  12.9km/h 72% 0.00in /  0mm
16:19 37.2 °F /  2.9 °C 29.3 °F /  -1.5 °C 30.29in /  1025.6hPa WSW 1.0mph /  1.6km/h 6.0mph /  9.7km/h 73% 0.00in /  0mm
16:24 37.2 °F /  2.9 °C 29.3 °F /  -1.5 °C 30.29in /  1025.6hPa SW 2.0mph /  3.2km/h 5.0mph /  8km/h 73% 0.00in /  0mm
16:29 36.7 °F /  2.6 °C 28.9 °F /  -1.7 °C 30.29in /  1025.6hPa SW 3.0mph /  4.8km/h 8.0mph /  12.9km/h 73% 0.00in /  0mm
16:34 36.7 °F /  2.6 °C 29.2 °F /  -1.6 °C 30.29in /  1025.6hPa SW 3.0mph /  4.8km/h 8.0mph /  12.9km/h 74% 0.00in /  0mm
16:39 36.4 °F /  2.4 °C 28.9 °F /  -1.7 °C 30.30in /  1026hPa WSW 3.0mph /  4.8km/h 7.0mph /  11.3km/h 74% 0.00in /  0mm
16:44 36.3 °F /  2.4 °C 29.1 °F /  -1.6 °C 30.30in /  1026hPa SW 4.0mph /  6.4km/h 7.0mph /  11.3km/h 75% 0.00in /  0mm
16:49 36.1 °F /  2.3 °C 28.9 °F /  -1.7 °C 30.30in /  1026hPa WSW 3.0mph /  4.8km/h 5.0mph /  8km/h 75% 0.00in /  0mm
16:54 35.9 °F /  2.2 °C 28.7 °F /  -1.8 °C 30.30in /  1026hPa WSW 3.0mph /  4.8km/h 6.0mph /  9.7km/h 75% 0.00in /  0mm
16:59 35.5 °F /  1.9 °C 28.4 °F /  -2 °C 30.30in /  1026hPa WSW 3.0mph /  4.8km/h 6.0mph /  9.7km/h 75% 0.00in /  0mm
17:04 35.3 °F /  1.8 °C 28.5 °F /  -1.9 °C 30.30in /  1026hPa WSW 3.0mph /  4.8km/h 6.0mph /  9.7km/h 76% 0.00in /  0mm
17:09 35.1 °F /  1.7 °C 28.6 °F /  -1.9 °C 30.30in /  1026hPa WSW 1.0mph /  1.6km/h 5.0mph /  8km/h 77% 0.00in /  0mm
17:14 34.9 °F /  1.6 °C 28.4 °F /  -2 °C 30.30in /  1026hPa WSW 5.0mph /  8km/h 5.0mph /  8km/h 77% 0.00in /  0mm
17:19 34.7 °F /  1.5 °C 28.5 °F /  -1.9 °C 30.30in /  1026hPa Calm   5.0mph /  8km/h 78% 0.00in /  0mm
17:24 34.4 °F /  1.3 °C 28.2 °F /  -2.1 °C 30.30in /  1026hPa WSW 3.0mph /  4.8km/h 3.0mph /  4.8km/h 78% 0.00in /  0mm
17:29 34.3 °F /  1.3 °C 28.5 °F /  -1.9 °C 30.30in /  1026hPa WSW 2.0mph /  3.2km/h 4.0mph /  6.4km/h 79% 0.00in /  0mm
17:34 34.1 °F /  1.2 °C 28.3 °F /  -2.1 °C 30.30in /  1026hPa WSW 2.0mph /  3.2km/h 4.0mph /  6.4km/h 79% 0.00in /  0mm
17:39 33.8 °F /  1 °C 28.0 °F /  -2.2 °C 30.30in /  1026hPa WSW 1.0mph /  1.6km/h 3.0mph /  4.8km/h 79% 0.00in /  0mm
17:44 33.5 °F /  0.8 °C 27.7 °F /  -2.4 °C 30.30in /  1026hPa WSW 1.0mph /  1.6km/h 2.0mph /  3.2km/h 79% 0.00in /  0mm
17:49 33.2 °F /  0.7 °C 27.7 °F /  -2.4 °C 30.31in /  1026.3hPa Calm   2.0mph /  3.2km/h 80% 0.00in /  0mm
17:54 33.0 °F /  0.6 °C 27.8 °F /  -2.3 °C 30.31in /  1026.3hPa Calm     81% 0.00in /  0mm
17:59 32.9 °F /  0.5 °C 27.7 °F /  -2.4 °C 30.31in /  1026.3hPa WSW 2.0mph /  3.2km/h 3.0mph /  4.8km/h 81% 0.00in /  0mm
18:04 33.0 °F /  0.6 °C 27.8 °F /  -2.3 °C 30.32in /  1026.6hPa Calm   2.0mph /  3.2km/h 81% 0.00in /  0mm
18:09 32.9 °F /  0.5 °C 27.7 °F /  -2.4 °C 30.32in /  1026.6hPa Calm   2.0mph /  3.2km/h 81% 0.00in /  0mm
18:14 32.9 °F /  0.5 °C 28.0 °F /  -2.2 °C 30.32in /  1026.6hPa Calm   3.0mph /  4.8km/h 82% 0.00in /  0mm
18:19 32.7 °F /  0.4 °C 27.8 °F /  -2.3 °C 30.32in /  1026.6hPa WSW 1.0mph /  1.6km/h 3.0mph /  4.8km/h 82% 0.00in /  0mm
18:24 32.6 °F /  0.3 °C 27.7 °F /  -2.4 °C 30.32in /  1026.6hPa Calm   2.0mph /  3.2km/h 82% 0.00in /  0mm
18:29 32.5 °F /  0.3 °C 27.6 °F /  -2.4 °C 30.33in /  1027hPa Calm   2.0mph /  3.2km/h 82% 0.00in /  0mm
18:34 32.1 °F /  0.1 °C 27.2 °F /  -2.7 °C 30.33in /  1027hPa Calm   1.0mph /  1.6km/h 82% 0.00in /  0mm
18:39 31.9 °F /  -0.1 °C 27.3 °F /  -2.6 °C 30.33in /  1027hPa Calm     83% 0.00in /  0mm
18:44 31.8 °F /  -0.1 °C 27.2 °F /  -2.7 °C 30.33in /  1027hPa Calm     83% 0.00in /  0mm
18:49 31.7 °F /  -0.2 °C 27.4 °F /  -2.6 °C 30.33in /  1027hPa Calm     84% 0.00in /  0mm
18:54 31.8 °F /  -0.1 °C 27.5 °F /  -2.5 °C 30.33in /  1027hPa Calm     84% 0.00in /  0mm
18:59 31.9 °F /  -0.1 °C 27.6 °F /  -2.4 °C 30.33in /  1027hPa Calm     84% 0.00in /  0mm
19:04 32.2 °F /  0.1 °C 28.2 °F /  -2.1 °C 30.33in /  1027hPa Calm   1.0mph /  1.6km/h 85% 0.00in /  0mm
19:09 32.7 °F /  0.4 °C 28.7 °F /  -1.8 °C 30.34in /  1027.3hPa Calm   2.0mph /  3.2km/h 85% 0.00in /  0mm
19:14 33.4 °F /  0.8 °C 29.4 °F /  -1.4 °C 30.34in /  1027.3hPa West 1.0mph /  1.6km/h 3.0mph /  4.8km/h 85% 0.00in /  0mm
19:19 33.9 °F /  1.1 °C 29.6 °F /  -1.3 °C 30.34in /  1027.3hPa NW 1.0mph /  1.6km/h 5.0mph /  8km/h 84% 0.00in /  0mm
19:24 34.2 °F /  1.2 °C 29.6 °F /  -1.3 °C 30.34in /  1027.3hPa NNW 1.0mph /  1.6km/h 5.0mph /  8km/h 83% 0.00in /  0mm
19:29 34.4 °F /  1.3 °C 29.8 °F /  -1.2 °C 30.35in /  1027.7hPa North 1.0mph /  1.6km/h 4.0mph /  6.4km/h 83% 0.00in /  0mm
19:34 34.4 °F /  1.3 °C 29.5 °F /  -1.4 °C 30.35in /  1027.7hPa NE 2.0mph /  3.2km/h 8.0mph /  12.9km/h 82% 0.00in /  0mm
19:39 34.1 °F /  1.2 °C 28.6 °F /  -1.9 °C 30.35in /  1027.7hPa NNE 2.0mph /  3.2km/h 8.0mph /  12.9km/h 80% 0.00in /  0mm
19:44 34.0 °F /  1.1 °C 28.2 °F /  -2.1 °C 30.35in /  1027.7hPa NE 3.0mph /  4.8km/h 8.0mph /  12.9km/h 79% 0.00in /  0mm
19:49 34.0 °F /  1.1 °C 28.2 °F /  -2.1 °C 30.35in /  1027.7hPa NE 2.0mph /  3.2km/h 5.0mph /  8km/h 79% 0.00in /  0mm
19:54 33.9 °F /  1.1 °C 27.8 °F /  -2.3 °C 30.35in /  1027.7hPa NE 5.0mph /  8km/h 5.0mph /  8km/h 78% 0.00in /  0mm
19:59 33.8 °F /  1 °C 27.7 °F /  -2.4 °C 30.35in /  1027.7hPa NE 3.0mph /  4.8km/h 7.0mph /  11.3km/h 78% 0.00in /  0mm
20:04 33.7 °F /  0.9 °C 27.6 °F /  -2.4 °C 30.35in /  1027.7hPa NE 1.0mph /  1.6km/h 5.0mph /  8km/h 78% 0.00in /  0mm
20:09 33.6 °F /  0.9 °C 27.5 °F /  -2.5 °C 30.35in /  1027.7hPa NE 1.0mph /  1.6km/h 4.0mph /  6.4km/h 78% 0.00in /  0mm
20:14 33.4 °F /  0.8 °C 27.3 °F /  -2.6 °C 30.35in /  1027.7hPa NE 3.0mph /  4.8km/h 3.0mph /  4.8km/h 78% 0.00in /  0mm
20:19 33.3 °F /  0.7 °C 27.2 °F /  -2.7 °C 30.35in /  1027.7hPa NE 1.0mph /  1.6km/h 5.0mph /  8km/h 78% 0.00in /  0mm
20:24 33.3 °F /  0.7 °C 27.5 °F /  -2.5 °C 30.35in /  1027.7hPa NE 2.0mph /  3.2km/h 5.0mph /  8km/h 79% 0.00in /  0mm
20:29 33.3 °F /  0.7 °C 27.5 °F /  -2.5 °C 30.35in /  1027.7hPa NE 2.0mph /  3.2km/h 4.0mph /  6.4km/h 79% 0.00in /  0mm
20:34 33.2 °F /  0.7 °C 27.4 °F /  -2.6 °C 30.35in /  1027.7hPa NE 2.0mph /  3.2km/h 4.0mph /  6.4km/h 79% 0.00in /  0mm
20:39 33.1 °F /  0.6 °C 27.3 °F /  -2.6 °C 30.35in /  1027.7hPa NE 2.0mph /  3.2km/h 4.0mph /  6.4km/h 79% 0.00in /  0mm
20:44 33.0 °F /  0.6 °C 27.2 °F /  -2.7 °C 30.35in /  1027.7hPa NE 2.0mph /  3.2km/h 4.0mph /  6.4km/h 79% 0.00in /  0mm
20:49 32.8 °F /  0.4 °C 27.0 °F /  -2.8 °C 30.36in /  1028hPa NE 1.0mph /  1.6km/h 3.0mph /  4.8km/h 79% 0.00in /  0mm
20:54 32.7 °F /  0.4 °C 26.9 °F /  -2.8 °C 30.36in /  1028hPa NE 1.0mph /  1.6km/h 3.0mph /  4.8km/h 79% 0.00in /  0mm
20:59 32.5 °F /  0.3 °C 27.0 °F /  -2.8 °C 30.36in /  1028hPa NE 1.0mph /  1.6km/h 4.0mph /  6.4km/h 80% 0.00in /  0mm
21:04 32.5 °F /  0.3 °C 27.0 °F /  -2.8 °C 30.36in /  1028hPa NE 1.0mph /  1.6km/h 2.0mph /  3.2km/h 80% 0.00in /  0mm
21:09 32.4 °F /  0.2 °C 26.9 °F /  -2.8 °C 30.36in /  1028hPa NE 2.0mph /  3.2km/h 4.0mph /  6.4km/h 80% 0.00in /  0mm
21:14 32.2 °F /  0.1 °C 26.7 °F /  -2.9 °C 30.35in /  1027.7hPa NE 2.0mph /  3.2km/h 4.0mph /  6.4km/h 80% 0.00in /  0mm
21:19 32.1 °F /  0.1 °C 26.6 °F /  -3 °C 30.36in /  1028hPa NE 3.0mph /  4.8km/h 4.0mph /  6.4km/h 80% 0.00in /  0mm
21:24 32.0 °F /  0 °C 26.5 °F /  -3.1 °C 30.35in /  1027.7hPa NE 2.0mph /  3.2km/h 4.0mph /  6.4km/h 80% 0.00in /  0mm
21:29 31.8 °F /  -0.1 °C 26.3 °F /  -3.2 °C 30.36in /  1028hPa NE 1.0mph /  1.6km/h 4.0mph /  6.4km/h 80% 0.00in /  0mm
21:34 31.7 °F /  -0.2 °C 26.2 °F /  -3.2 °C 30.35in /  1027.7hPa NE 1.0mph /  1.6km/h 3.0mph /  4.8km/h 80% 0.00in /  0mm
21:39 31.5 °F /  -0.3 °C 26.0 °F /  -3.3 °C 30.36in /  1028hPa NE 1.0mph /  1.6km/h 3.0mph /  4.8km/h 80% 0.00in /  0mm
21:44 31.5 °F /  -0.3 °C 26.0 °F /  -3.3 °C 30.36in /  1028hPa NE 2.0mph /  3.2km/h 4.0mph /  6.4km/h 80% 0.00in /  0mm
21:49 31.5 °F /  -0.3 °C 26.3 °F /  -3.2 °C 30.36in /  1028hPa NE 3.0mph /  4.8km/h 5.0mph /  8km/h 81% 0.00in /  0mm
21:54 31.6 °F /  -0.2 °C 26.4 °F /  -3.1 °C 30.36in /  1028hPa NE 1.0mph /  1.6km/h 4.0mph /  6.4km/h 81% 0.00in /  0mm
21:59 31.5 °F /  -0.3 °C 26.3 °F /  -3.2 °C 30.36in /  1028hPa NE 2.0mph /  3.2km/h 5.0mph /  8km/h 81% 0.00in /  0mm
22:04 31.4 °F /  -0.3 °C 25.9 °F /  -3.4 °C 30.36in /  1028hPa NE 2.0mph /  3.2km/h 5.0mph /  8km/h 80% 0.00in /  0mm
22:09 31.4 °F /  -0.3 °C 25.9 °F /  -3.4 °C 30.36in /  1028hPa NE 1.0mph /  1.6km/h 5.0mph /  8km/h 80% 0.00in /  0mm
22:14 31.3 °F /  -0.4 °C 25.8 °F /  -3.4 °C 30.36in /  1028hPa NE 2.0mph /  3.2km/h 3.0mph /  4.8km/h 80% 0.00in /  0mm
22:19 31.2 °F /  -0.4 °C 25.7 °F /  -3.5 °C 30.36in /  1028hPa ENE 1.0mph /  1.6km/h 4.0mph /  6.4km/h 80% 0.00in /  0mm
22:24 31.0 °F /  -0.6 °C 25.6 °F /  -3.6 °C 30.36in /  1028hPa ENE 3.0mph /  4.8km/h 3.0mph /  4.8km/h 80% 0.00in /  0mm
22:29 30.8 °F /  -0.7 °C 25.4 °F /  -3.7 °C 30.36in /  1028hPa NE 2.0mph /  3.2km/h 3.0mph /  4.8km/h 80% 0.00in /  0mm
22:34 30.7 °F /  -0.7 °C 25.3 °F /  -3.7 °C 30.36in /  1028hPa NE 2.0mph /  3.2km/h 3.0mph /  4.8km/h 80% 0.00in /  0mm
22:39 30.6 °F /  -0.8 °C 25.2 °F /  -3.8 °C 30.36in /  1028hPa NE 2.0mph /  3.2km/h 4.0mph /  6.4km/h 80% 0.00in /  0mm
22:44 30.6 °F /  -0.8 °C 25.2 °F /  -3.8 °C 30.36in /  1028hPa NE 2.0mph /  3.2km/h 4.0mph /  6.4km/h 80% 0.00in /  0mm
22:49 30.5 °F /  -0.8 °C 25.1 °F /  -3.8 °C 30.36in /  1028hPa NE 2.0mph /  3.2km/h 4.0mph /  6.4km/h 80% 0.00in /  0mm
22:54 30.5 °F /  -0.8 °C 25.1 °F /  -3.8 °C 30.35in /  1027.7hPa NE 4.0mph /  6.4km/h 5.0mph /  8km/h 80% 0.00in /  0mm
22:59 30.4 °F /  -0.9 °C 25.0 °F /  -3.9 °C 30.35in /  1027.7hPa NE 2.0mph /  3.2km/h 5.0mph /  8km/h 80% 0.00in /  0mm
23:04 30.4 °F /  -0.9 °C 25.0 °F /  -3.9 °C 30.35in /  1027.7hPa NE 2.0mph /  3.2km/h 6.0mph /  9.7km/h 80% 0.00in /  0mm
23:09 30.3 °F /  -0.9 °C 24.9 °F /  -3.9 °C 30.35in /  1027.7hPa Calm   4.0mph /  6.4km/h 80% 0.00in /  0mm
23:14 30.2 °F /  -1 °C 24.8 °F /  -4 °C 30.35in /  1027.7hPa ENE 1.0mph /  1.6km/h 3.0mph /  4.8km/h 80% 0.00in /  0mm
23:19 30.1 °F /  -1.1 °C 24.4 °F /  -4.2 °C 30.35in /  1027.7hPa NE 3.0mph /  4.8km/h 4.0mph /  6.4km/h 79% 0.00in /  0mm
23:24 29.9 °F /  -1.2 °C 24.2 °F /  -4.3 °C 30.35in /  1027.7hPa NE 2.0mph /  3.2km/h 4.0mph /  6.4km/h 79% 0.00in /  0mm
23:29 29.8 °F /  -1.2 °C 24.1 °F /  -4.4 °C 30.35in /  1027.7hPa NE 2.0mph /  3.2km/h 5.0mph /  8km/h 79% 0.00in /  0mm
23:34 29.7 °F /  -1.3 °C 24.0 °F /  -4.4 °C 30.35in /  1027.7hPa NE 2.0mph /  3.2km/h 5.0mph /  8km/h 79% 0.00in /  0mm
23:39 29.7 °F /  -1.3 °C 24.0 °F /  -4.4 °C 30.35in /  1027.7hPa NE 2.0mph /  3.2km/h 4.0mph /  6.4km/h 79% 0.00in /  0mm
23:44 29.6 °F /  -1.3 °C 23.9 °F /  -4.5 °C 30.35in /  1027.7hPa NE 3.0mph /  4.8km/h 5.0mph /  8km/h 79% 0.00in /  0mm
23:49 29.4 °F /  -1.4 °C 23.4 °F /  -4.8 °C 30.35in /  1027.7hPa NE 2.0mph /  3.2km/h 5.0mph /  8km/h 78% 0.00in /  0mm
23:54 29.3 °F /  -1.5 °C 23.6 °F /  -4.7 °C 30.35in /  1027.7hPa NE 2.0mph /  3.2km/h 4.0mph /  6.4km/h 79% 0.00in /  0mm
23:59 29.3 °F /  -1.5 °C 23.6 °F /  -4.7 °C 30.35in /  1027.7hPa NE 2.0mph /  3.2km/h 4.0mph /  6.4km/h 79% 0.00in /  0mm
Buffalo, New York, USA
Compliments of Weather Underground - 2.5 mb